Flight Track Log - Related Links

Times and Time Zones

All times are in EDT time to prevent confusion due to time zone crossing. See the DAL3672 flight status page for this flight to view local times or setup timezone preferences in your user account.

Time Position Orientation Groundspeed Altitude Reporting Facility
EDT Latitude Longitude Course Direction KTS MPH feet Rate Location/Type
Fri 02:24:22 PM 42.9500 -71.4167 North 153 176 1,300  Level KA90
Fri 02:25:23 PM 43.0064 -71.4039 North 214 246 3,200 1,770 Climbing Boston Center
Fri 02:26:24 PM 43.0528 -71.4569 320° Northwest 209 241 4,900 2,800 Climbing Boston Center
Fri 02:27:23 PM 43.0889 -71.5586 296° West 234 269 8,800 2,797 Climbing Boston Center
Fri 02:28:22 PM 43.0917 -71.6411 273° West 222 255 10,400 1,462 Climbing Boston Center
Fri 02:29:22 PM 43.0944 -71.7464 272° West 247 284 11,700 1,091 Climbing Boston Center
Fri 02:30:23 PM 43.0992 -71.8628 273° West 299 344 12,600 1,180 Climbing Boston Center
Fri 02:31:24 PM 43.1039 -71.9794 273° West 310 357 14,100 1,613 Climbing Boston Center
Fri 02:32:22 PM 43.1064 -72.0989 272° West 315 362 15,800 1,613 Climbing Boston Center
Fri 02:33:23 PM 43.1108 -72.2156 273° West 309 356 17,300 984 Climbing Boston Center
Fri 02:34:24 PM 43.1153 -72.3264 273° West 309 356 17,800 756 Climbing Boston Center
Fri 02:35:22 PM 43.1172 -72.4514 271° West 321 369 18,800 1,169 Climbing Boston Center
Fri 02:36:22 PM 43.1297 -72.5739 278° West 327 376 20,100 1,339 Climbing Boston Center
Fri 02:37:23 PM 43.1233 -72.7103 266° West 327 376 21,500 1,140 Climbing Boston Center
Fri 02:38:23 PM 43.1272 -72.8042 273° West 327 376 22,400 843 Climbing Boston Center
Fri 02:39:24 PM 43.1308 -72.9550 272° West 327 376 23,200 793 Climbing Boston Center
Fri 02:40:24 PM 43.1344 -73.0717 272° West 333 383 24,000 915 Climbing Boston Center
Fri 02:41:22 PM 43.1378 -73.1969 272° West 333 383 25,000 1,008 Climbing Boston Center
Fri 02:42:23 PM 43.1411 -73.3222 272° West 333 383 26,000 492 Climbing Boston Center
Fri 02:43:24 PM 43.1483 -73.4589 274° West 328 377 26,000  Level Boston Center
Fri 02:44:23 PM 43.1678 -73.5931 281° West 344 396 26,000  Level Boston Center
Fri 02:45:24 PM 43.1892 -73.7300 282° West 356 410 26,000 252 Level Boston Center
Fri 02:46:22 PM 43.2083 -73.8644 281° West 361 415 26,500 504 Climbing Boston Center
Fri 02:47:23 PM 43.2297 -73.9989 282° West 361 415 27,000 496 Climbing Boston Center
Fri 02:48:23 PM 43.2547 -74.1364 284° West 366 421 27,500 500 Climbing Boston Center
Fri 02:49:23 PM 43.2778 -74.2739 283° West 366 421 28,000 248 Climbing Boston Center
Fri 02:50:24 PM 43.3006 -74.4086 283° West 371 427 28,000  Level Boston Center
Fri 02:51:25 PM 43.3272 -74.5436 285° West 371 427 28,000  Level Boston Center
Fri 02:52:23 PM 43.3453 -74.6814 280° West 371 427 28,000  Level Boston Center
Fri 02:53:24 PM 43.3322 -74.8150 262° West 365 420 28,000  Level Boston Center
Fri 02:54:24 PM 43.3211 -74.9486 264° West 365 420 28,000  Level Boston Center
Fri 02:55:22 PM 43.3078 -75.0822 262° West 365 420 28,000  Level Boston Center
Fri 02:56:23 PM 43.2939 -75.2217 262° West 370 426 28,000  Level Boston Center
Fri 02:57:22 PM 43.2822 -75.3608 263° West 370 426 28,000  Level Boston Center
Fri 02:58:23 PM 43.2731 -75.4686 263° West 370 426 28,000  Level Boston Center
Fri 02:59:24 PM 43.2608 -75.6164 264° West 365 420 28,000  Level Boston Center
Fri 03:00:22 PM 43.2464 -75.7525 262° West 365 420 28,000  Level Boston Center
Fri 03:01:23 PM 43.2342 -75.8858 263° West 365 420 28,000  Level Boston Center
Fri 03:02:23 PM 43.2217 -76.0192 263° West 365 420 28,000  Level Boston Center
Fri 03:03:24 PM 43.2089 -76.1581 263° West 365 420 28,000  Level Boston Center
Fri 03:05:33 PM 43.1783 -76.4489 262° West 369 425 28,000  Level Cleveland Center
Fri 03:06:32 PM 43.1644 -76.5839 262° West 369 425 28,000  Level Cleveland Center
Fri 03:07:32 PM 43.1481 -76.7158 260° West 364 419 28,000  Level Cleveland Center
Fri 03:08:33 PM 43.1336 -76.8533 262° West 364 419 28,000  Level Cleveland Center
Fri 03:09:32 PM 43.1211 -76.9850 263° West 359 413 28,000  Level Cleveland Center
Fri 03:10:32 PM 43.1067 -77.1194 262° West 359 413 28,000  Level Cleveland Center
Fri 03:11:33 PM 43.0917 -77.2511 261° West 353 406 28,000  Level Cleveland Center
Fri 03:12:32 PM 43.0767 -77.3828 261° West 353 406 28,000  Level Cleveland Center
Fri 03:13:32 PM 43.0614 -77.5142 261° West 353 406 28,000  Level Cleveland Center
Fri 03:14:32 PM 43.0481 -77.6456 262° West 353 406 28,000  Level Cleveland Center
Fri 03:15:33 PM 43.0347 -77.7769 262° West 353 406 28,000  Level Cleveland Center
Fri 03:16:32 PM 43.0192 -77.9083 261° West 353 406 28,000  Level Cleveland Center
Fri 03:17:32 PM 43.0033 -78.0422 261° West 353 406 28,000  Level Cleveland Center
Fri 03:18:32 PM 42.9875 -78.1708 260° West 353 406 28,000  Level Cleveland Center
Fri 03:19:32 PM 42.9733 -78.3019 262° West 353 406 28,000  Level Cleveland Center
Fri 03:20:33 PM 42.9550 -78.4300 259° West 353 406 28,000  Level Cleveland Center
Fri 03:21:33 PM 42.9406 -78.5611 261° West 353 406 28,000  Level Cleveland Center
Fri 03:22:32 PM 42.9242 -78.6922 260° West 353 406 28,000  Level Cleveland Center
Fri 03:23:32 PM 42.9053 -78.8203 259° West 353 406 28,000  Level Cleveland Center
Fri 03:24:32 PM 42.8883 -78.9481 260° West 353 406 28,000  Level Cleveland Center
Fri 03:25:32 PM 42.8714 -79.0761 260° West 353 406 28,000  Level Cleveland Center
Fri 03:26:32 PM 42.8500 -79.2042 257° West 353 406 28,000  Level Cleveland Center
Fri 03:27:32 PM 42.8286 -79.3347 257° West 353 406 28,000  Level Cleveland Center
Fri 03:28:32 PM 42.8133 -79.4625 261° West 353 406 28,000  Level Cleveland Center
Fri 03:29:33 PM 42.7936 -79.5958 259° West 353 406 28,000  Level Cleveland Center
Fri 03:30:33 PM 42.7739 -79.7261 258° West 359 413 28,000  Level Cleveland Center
Fri 03:31:32 PM 42.7539 -79.8622 259° West 359 413 28,000  Level Cleveland Center
Fri 03:32:33 PM 42.7464 -80.0064 266° West 371 427 28,000  Level Cleveland Center
Fri 03:33:32 PM 42.7367 -80.1422 264° West 379 436 28,000  Level Cleveland Center
Fri 03:34:32 PM 42.7350 -80.2836 269° West 379 436 28,000  Level Cleveland Center
Fri 03:35:33 PM 42.7269 -80.4192 265° West 373 429 28,000  Level Cleveland Center
Fri 03:36:33 PM 42.7208 -80.5633 267° West 373 429 28,000  Level Cleveland Center
Fri 03:37:33 PM 42.7144 -80.7189 267° West 373 429 28,000 -2,017 Level Cleveland Center
Fri 03:38:32 PM 42.7078 -80.8628 266° West 378 435 24,000 -1,300 Descending Cleveland Center
Fri 03:39:33 PM 42.6969 -80.9956 264° West 373 429 25,400 50 Climbing Cleveland Center
Fri 03:40:32 PM 42.6800 -81.1197 260° West 359 413 24,100 -700 Descending Cleveland Center
Fri 03:41:33 PM 42.6667 -81.2494 262° West 353 406 24,000 -50 Descending Cleveland Center
Fri 03:42:32 PM 42.6514 -81.3792 261° West 353 406 24,000  Level Cleveland Center
Fri 03:43:32 PM 42.6356 -81.5117 261° West 353 406 24,000  Level Cleveland Center
Fri 03:44:33 PM 42.6178 -81.6442 260° West 353 406 24,000 -650 Level Cleveland Center
Fri 03:45:32 PM 42.6042 -81.7764 262° West 353 406 22,700 -1,462 Descending Cleveland Center
Fri 03:46:32 PM 42.5883 -81.8889 259° West 353 406 21,100 -1,686 Descending Cleveland Center
Fri 03:47:33 PM 42.5722 -82.0183 260° West 353 406 19,300 -1,950 Descending Cleveland Center
Fri 03:48:32 PM 42.5581 -82.1419 261° West 353 406 17,200 -1,900 Descending Cleveland Center
Fri 03:49:33 PM 42.5417 -82.2683 260° West 353 406 15,500 -1,759 Descending Cleveland Center
Fri 03:50:28 PM 42.5272 -82.3975 261° West 320 368 13,800 -1,650 Descending Cleveland Center
Fri 03:51:33 PM 42.5128 -82.5069 260° West 333 383 12,200 -984 Descending Cleveland Center
Fri 03:52:30 PM 42.4839 -82.6186 251° West 288 331 11,800 -1,017 Descending Cleveland Center
Fri 03:53:31 PM 42.4531 -82.7078 245° Southwest 252 290 10,200 -1,525 Descending Cleveland Center
Fri 03:54:32 PM 42.4203 -82.7911 242° Southwest 248 285 8,700 -1,525 Descending Cleveland Center
Fri 03:55:33 PM 42.3628 -82.8536 219° Southwest 250 288 7,100 -931 Descending Cleveland Center
Fri 03:56:28 PM 42.3653 -82.9325 272° West 239 275 6,900 -541 Descending Cleveland Center
Fri 03:57:35 PM 42.3864 -83.0261 287° West 217 250 6,000 -581 Descending Cleveland Center
Fri 03:58:32 PM 42.4039 -83.0831 293° West 208 239 5,700 -407 Descending Cleveland Center
Fri 03:59:33 PM 42.4233 -83.1400 295° West 188 216 5,200 -336 Descending Cleveland Center
Fri 04:00:37 PM 42.4011 -83.2011 244° Southwest 160 184 5,000 -550 Descending Cleveland Center
Fri 04:01:44 PM 42.3589 -83.2303 207° Southwest 157 181 4,000 -896 Descending Cleveland Center
Fri 04:02:51 PM 42.3164 -83.2650 211° Southwest 155 178 3,000 -885 Descending Cleveland Center
Fri 04:03:46 PM 42.2825 -83.2886 207° Southwest 139 160 2,200 -787 Descending Cleveland Center
Fri 04:04:53 PM 42.2483 -83.3153 210° Southwest 132 152 1,400 -716 Descending Cleveland Center

Login

Don't have an account? Register now (free) for customized features, flight alerts, and more!